Louisville, Kentucky
Current Conditions -  °F | °C
As of 8:56 AM on Thursday 27 Nov 2014 (Local Time) from KSDF Reporting Station
Overcast Overcast  
Wind Chill: -6°   Ceiling: 2100
Heat Index: -1°   Visibility: 7mi
Dew Point: -4°   Wind: 13mph
Humidity: 79%   Direction: 340°NNW
Pressure: 30.29"   Gusts: NA
Location:  38.25°N, 85.77°W
Report Text: KSDF 271356Z 34011KT 7SM OVC021 M01/M04 A3029 RMK AO2 SLP262 T10061039
Loading
Personal Weather Stations






























Interactive Weather Map New forecast layout! Learn more

10-Day Weather Forecast

Advertisements
Track Severe Weather on mobile